createdAt,value
2018-07-15T00:01:41.656Z,18.67
2018-07-15T00:04:09.332Z,18.61
2018-07-15T00:06:37.035Z,18.54
2018-07-15T00:09:06.810Z,18.49
2018-07-15T00:11:34.532Z,18.49
2018-07-15T00:14:03.050Z,18.45
2018-07-15T00:16:31.054Z,18.36
2018-07-15T00:18:58.768Z,18.34
2018-07-15T00:21:26.450Z,18.34
2018-07-15T00:23:54.114Z,18.35
2018-07-15T00:26:25.356Z,18.34
2018-07-15T00:28:53.059Z,18.29
2018-07-15T00:31:20.754Z,18.24
2018-07-15T00:33:49.435Z,18.18
2018-07-15T00:36:18.909Z,18.15
2018-07-15T00:38:46.662Z,18.15
2018-07-15T00:41:14.750Z,18.14
2018-07-15T00:43:42.477Z,18.12
2018-07-15T00:46:10.207Z,18.07
2018-07-15T00:48:38.234Z,18.03
2018-07-15T00:51:05.909Z,18.00
2018-07-15T00:53:33.609Z,17.97
2018-07-15T00:56:01.602Z,17.96
2018-07-15T00:58:29.269Z,17.98
2018-07-15T01:01:02.616Z,17.98
2018-07-15T01:03:30.676Z,18.00
2018-07-15T01:05:58.708Z,17.99
2018-07-15T01:08:26.389Z,17.96
2018-07-15T01:10:54.094Z,17.91
2018-07-15T01:13:21.799Z,17.84
2018-07-15T01:15:49.816Z,17.75
2018-07-15T01:18:17.483Z,17.69
2018-07-15T01:20:45.170Z,17.64
2018-07-15T01:23:13.243Z,17.61
2018-07-15T01:25:40.937Z,17.59
2018-07-15T01:28:09.668Z,17.57
2018-07-15T01:30:37.413Z,17.55
2018-07-15T01:33:05.471Z,17.55
2018-07-15T01:35:33.181Z,17.57
2018-07-15T01:38:00.883Z,17.57
2018-07-15T01:40:29.477Z,17.57
2018-07-15T01:42:57.166Z,17.57
2018-07-15T01:45:24.829Z,17.54
2018-07-15T01:47:52.836Z,17.54
2018-07-15T01:50:20.855Z,17.53
2018-07-15T01:52:49.272Z,17.50
2018-07-15T01:55:16.979Z,17.48
2018-07-15T01:57:44.981Z,17.49
2018-07-15T02:00:13.745Z,17.49
2018-07-15T02:02:41.457Z,17.47
2018-07-15T02:05:09.151Z,17.46
2018-07-15T02:07:38.158Z,17.44
2018-07-15T02:10:05.884Z,17.43
2018-07-15T02:12:33.598Z,17.40
2018-07-15T02:15:02.911Z,17.38
2018-07-15T02:17:31.005Z,17.38
2018-07-15T02:19:59.281Z,17.35
2018-07-15T02:22:26.953Z,17.34
2018-07-15T02:24:54.908Z,17.32
2018-07-15T02:27:22.620Z,17.24
2018-07-15T02:29:50.304Z,17.16
2018-07-15T02:32:18.257Z,17.11
2018-07-15T02:34:45.909Z,17.07
2018-07-15T02:37:13.593Z,17.05
2018-07-15T02:39:41.257Z,17.05
2018-07-15T02:42:09.253Z,17.08
2018-07-15T02:44:36.951Z,17.10
2018-07-15T02:47:04.674Z,17.10
2018-07-15T02:49:32.737Z,17.11
2018-07-15T02:52:00.416Z,17.12
2018-07-15T02:54:28.118Z,17.11
2018-07-15T02:56:55.809Z,17.09
2018-07-15T02:59:23.745Z,17.07
2018-07-15T03:01:51.447Z,17.03
2018-07-15T03:04:19.177Z,17.02
2018-07-15T03:06:51.645Z,17.02
2018-07-15T03:09:19.642Z,17.02
2018-07-15T03:11:47.576Z,16.99
2018-07-15T03:14:15.267Z,16.98
2018-07-15T03:16:42.978Z,16.95
2018-07-15T03:19:10.694Z,16.92
2018-07-15T03:21:38.718Z,16.90
2018-07-15T03:24:06.431Z,16.84
2018-07-15T03:26:34.462Z,16.80
2018-07-15T03:29:02.148Z,16.76
2018-07-15T03:31:29.823Z,16.72
2018-07-15T03:33:57.514Z,16.69
2018-07-15T03:36:27.235Z,16.65
2018-07-15T03:38:54.931Z,16.64
2018-07-15T03:41:22.625Z,16.67
2018-07-15T03:43:50.438Z,16.67
2018-07-15T03:46:20.051Z,16.68
2018-07-15T03:48:47.694Z,16.69
2018-07-15T03:51:15.426Z,16.70
2018-07-15T03:53:43.412Z,16.66
2018-07-15T03:56:11.632Z,16.65
2018-07-15T03:58:39.325Z,16.61
2018-07-15T04:01:07.339Z,16.54
2018-07-15T04:03:35.031Z,16.55
2018-07-15T04:06:02.720Z,16.54
2018-07-15T04:08:31.574Z,16.55
2018-07-15T04:10:59.538Z,16.54
2018-07-15T04:13:27.242Z,16.54
2018-07-15T04:15:54.939Z,16.50
2018-07-15T04:18:22.605Z,16.47
2018-07-15T04:20:50.261Z,16.42
2018-07-15T04:23:17.930Z,16.43
2018-07-15T04:25:45.634Z,16.46
2018-07-15T04:28:13.663Z,16.50
2018-07-15T04:30:41.335Z,16.52
2018-07-15T04:33:09.029Z,16.53
2018-07-15T04:35:36.978Z,16.53
2018-07-15T04:38:04.667Z,16.56
2018-07-15T04:40:32.355Z,16.61
2018-07-15T04:43:00.114Z,16.66
2018-07-15T04:45:28.610Z,16.68
2018-07-15T04:47:56.307Z,16.72
2018-07-15T04:50:23.997Z,16.76
2018-07-15T04:52:52.319Z,16.81
2018-07-15T04:55:20.345Z,16.83
2018-07-15T04:57:48.014Z,16.87
2018-07-15T05:00:16.293Z,16.90
2018-07-15T05:02:43.953Z,16.90
2018-07-15T05:05:11.915Z,16.95
2018-07-15T05:07:40.518Z,16.98
2018-07-15T05:10:08.201Z,17.02
2018-07-15T05:12:35.896Z,17.04
2018-07-15T05:15:03.881Z,17.07
2018-07-15T05:17:31.656Z,17.12
2018-07-15T05:19:59.348Z,17.14
2018-07-15T05:22:29.288Z,17.19
2018-07-15T05:24:57.523Z,17.23
2018-07-15T05:27:25.208Z,17.27
2018-07-15T05:29:53.584Z,17.31
2018-07-15T05:32:21.605Z,17.35
2018-07-15T05:34:49.363Z,17.38
2018-07-15T05:37:17.059Z,17.41
2018-07-15T05:39:44.747Z,17.46
2018-07-15T05:42:12.741Z,17.50
2018-07-15T05:44:40.429Z,17.54
2018-07-15T05:47:08.128Z,17.58
2018-07-15T05:49:35.905Z,17.63
2018-07-15T05:52:04.717Z,17.67
2018-07-15T05:54:32.434Z,17.73
2018-07-15T05:57:01.353Z,17.78
2018-07-15T05:59:29.333Z,17.84
2018-07-15T06:01:57.803Z,17.88
2018-07-15T06:04:25.483Z,17.93
2018-07-15T06:06:53.527Z,17.99
2018-07-15T06:09:21.509Z,18.04
2018-07-15T06:11:49.211Z,18.09
2018-07-15T06:14:20.582Z,18.14
2018-07-15T06:16:48.285Z,18.19
2018-07-15T06:19:16.278Z,18.24
2018-07-15T06:21:43.937Z,18.31
2018-07-15T06:24:11.639Z,18.36
2018-07-15T06:26:39.608Z,18.42
2018-07-15T06:29:07.318Z,18.48
2018-07-15T06:31:35.267Z,18.54
2018-07-15T06:34:03.770Z,18.61
2018-07-15T06:36:31.762Z,18.67
2018-07-15T06:38:59.449Z,18.73
2018-07-15T06:41:27.279Z,18.79
2018-07-15T06:43:54.949Z,18.87
2018-07-15T06:46:26.025Z,18.94
2018-07-15T06:48:56.680Z,19.03
2018-07-15T06:51:24.359Z,19.10
2018-07-15T06:53:52.386Z,19.18
2018-07-15T06:56:21.966Z,19.24
2018-07-15T06:58:49.771Z,19.32
2018-07-15T07:01:17.902Z,19.37
2018-07-15T07:03:45.657Z,19.47
2018-07-15T07:06:13.422Z,19.57
2018-07-15T07:08:42.214Z,19.65
2018-07-15T07:11:10.080Z,19.73
2018-07-15T07:13:37.792Z,19.82
2018-07-15T07:16:05.523Z,19.88
2018-07-15T07:18:33.534Z,19.95
2018-07-15T07:21:01.300Z,20.03
2018-07-15T07:23:33.551Z,20.10
2018-07-15T07:26:02.127Z,20.20
2018-07-15T07:28:29.844Z,20.28
2018-07-15T07:30:57.759Z,20.37
2018-07-15T07:33:25.723Z,20.45
2018-07-15T07:35:54.281Z,20.51
2018-07-15T07:38:21.990Z,20.59
2018-07-15T07:40:50.006Z,20.67
2018-07-15T07:43:18.547Z,20.73
2018-07-15T07:45:48.651Z,20.80
2018-07-15T07:48:16.623Z,20.86
2018-07-15T07:50:44.351Z,20.90
2018-07-15T07:53:12.737Z,20.96
2018-07-15T07:55:41.051Z,21.02
2018-07-15T07:58:08.848Z,21.08
2018-07-15T08:00:36.592Z,21.14
2018-07-15T08:03:05.538Z,21.20
2018-07-15T08:05:33.246Z,21.27
2018-07-15T08:08:01.761Z,21.34
2018-07-15T08:10:29.776Z,21.41
2018-07-15T08:12:57.466Z,21.47
2018-07-15T08:15:25.216Z,21.52
2018-07-15T08:17:53.207Z,21.61
2018-07-15T08:20:20.923Z,21.68
2018-07-15T08:22:48.642Z,21.76
2018-07-15T08:25:16.608Z,21.83
2018-07-15T08:27:44.334Z,21.90
2018-07-15T08:30:13.539Z,22.00
2018-07-15T08:32:41.569Z,22.08
2018-07-15T08:35:10.043Z,22.14
2018-07-15T08:37:37.692Z,22.21
2018-07-15T08:40:05.647Z,22.31
2018-07-15T08:42:33.337Z,22.40
2018-07-15T08:45:00.998Z,22.47
2018-07-15T08:47:28.980Z,22.52
2018-07-15T08:49:56.694Z,22.60
2018-07-15T08:52:24.426Z,22.70
2018-07-15T08:54:52.350Z,22.76
2018-07-15T08:57:20.046Z,22.84
2018-07-15T08:59:47.774Z,22.94
2018-07-15T09:02:17.157Z,23.02
2018-07-15T09:04:44.810Z,23.11
2018-07-15T09:07:12.486Z,23.20
2018-07-15T09:09:40.440Z,23.29
2018-07-15T09:12:08.110Z,23.39
2018-07-15T09:14:36.422Z,23.47
2018-07-15T09:17:06.566Z,23.55
2018-07-15T09:19:34.261Z,23.67
2018-07-15T09:22:02.766Z,23.77
2018-07-15T09:24:31.137Z,23.87
2018-07-15T09:26:59.623Z,23.96
2018-07-15T09:29:29.001Z,24.04
2018-07-15T09:31:57.894Z,24.12
2018-07-15T09:34:25.556Z,24.20
2018-07-15T09:40:05.867Z,24.39
2018-07-15T09:42:33.581Z,24.50
2018-07-15T09:45:02.142Z,24.60
2018-07-15T09:47:29.874Z,24.70
2018-07-15T09:49:58.914Z,24.79
2018-07-15T09:52:26.889Z,24.88
2018-07-15T09:54:55.538Z,24.97
2018-07-15T09:57:28.682Z,25.05
2018-07-15T09:59:57.513Z,25.12
2018-07-15T10:02:25.224Z,25.20
2018-07-15T10:04:52.959Z,25.26
2018-07-15T10:07:21.779Z,25.31
2018-07-15T10:09:49.533Z,25.37
2018-07-15T10:12:20.207Z,25.43
2018-07-15T10:14:48.199Z,25.54
2018-07-15T10:17:16.471Z,25.63
2018-07-15T10:19:44.178Z,25.72
2018-07-15T10:22:13.500Z,25.86
2018-07-15T10:24:41.188Z,25.98
2018-07-15T10:27:09.753Z,26.08
2018-07-15T10:29:37.747Z,26.18
2018-07-15T10:32:06.593Z,26.24
2018-07-15T10:34:34.887Z,26.30
2018-07-15T10:37:02.885Z,26.37
2018-07-15T10:39:30.570Z,26.47
2018-07-15T10:41:59.517Z,26.59
2018-07-15T10:44:28.037Z,26.67
2018-07-15T10:46:55.740Z,26.81
2018-07-15T10:49:24.353Z,26.93
2018-07-15T10:51:53.187Z,27.05
2018-07-15T10:54:22.932Z,27.13
2018-07-15T10:56:51.574Z,27.22
2018-07-15T10:59:20.560Z,27.33
2018-07-15T11:01:51.921Z,27.41
2018-07-15T11:04:19.658Z,27.56
2018-07-15T11:06:48.347Z,27.69
2018-07-15T11:09:16.021Z,27.81
2018-07-15T11:11:44.674Z,27.92
2018-07-15T11:14:12.652Z,28.04
2018-07-15T11:16:41.196Z,28.17
2018-07-15T11:19:08.902Z,28.30
2018-07-15T11:21:37.029Z,28.44
2018-07-15T11:24:06.891Z,28.55
2018-07-15T11:26:35.531Z,28.65
2018-07-15T11:29:04.406Z,28.68
2018-07-15T11:31:32.825Z,28.78
2018-07-15T11:34:00.691Z,28.81
2018-07-15T11:36:30.242Z,28.86
2018-07-15T11:38:59.501Z,28.88
2018-07-15T11:41:27.281Z,29.03
2018-07-15T11:43:56.933Z,29.18
2018-07-15T11:46:26.725Z,29.31
2018-07-15T11:48:54.438Z,29.50
2018-07-15T11:51:22.420Z,29.68
2018-07-15T11:53:51.189Z,29.82
2018-07-15T11:56:20.438Z,29.84
2018-07-15T11:58:48.739Z,29.83
2018-07-15T12:01:17.459Z,29.78
2018-07-15T12:03:45.186Z,29.77
2018-07-15T12:06:14.887Z,29.87
2018-07-15T12:08:42.594Z,29.99
2018-07-15T12:11:10.321Z,30.01
2018-07-15T12:13:40.001Z,30.01
2018-07-15T12:16:07.767Z,29.93
2018-07-15T12:18:35.469Z,29.81
2018-07-15T12:21:03.780Z,29.71
2018-07-15T12:23:31.774Z,29.68
2018-07-15T12:26:00.142Z,29.84
2018-07-15T12:28:28.167Z,30.10
2018-07-15T12:30:55.887Z,30.31
2018-07-15T12:33:24.290Z,30.43
2018-07-15T12:35:52.693Z,30.49
2018-07-15T12:38:20.913Z,30.52
2018-07-15T12:40:51.578Z,30.67
2018-07-15T12:43:19.764Z,30.82
2018-07-15T12:45:47.473Z,30.92
2018-07-15T12:48:15.192Z,30.98
2018-07-15T12:50:44.286Z,31.17
2018-07-15T12:53:12.811Z,31.34
2018-07-15T12:55:41.216Z,31.56
2018-07-15T12:58:09.421Z,31.78
2018-07-15T13:00:38.711Z,32.00
2018-07-15T13:03:07.816Z,32.11
2018-07-15T13:05:37.448Z,32.04
2018-07-15T13:08:05.571Z,31.85
2018-07-15T13:10:35.695Z,31.68
2018-07-15T13:13:05.227Z,31.48
2018-07-15T13:15:32.938Z,31.41
2018-07-15T13:18:00.650Z,31.39
2018-07-15T13:20:29.865Z,31.37
2018-07-15T13:22:58.507Z,31.38
2018-07-15T13:25:26.221Z,31.42
2018-07-15T13:27:54.417Z,31.46
2018-07-15T13:30:26.236Z,31.56
2018-07-15T13:32:57.561Z,31.58
2018-07-15T13:35:26.445Z,31.63
2018-07-15T13:37:54.705Z,31.66
2018-07-15T13:40:24.350Z,31.70
2018-07-15T13:42:52.578Z,31.65
2018-07-15T13:45:20.927Z,31.67
2018-07-15T13:47:51.613Z,31.69
2018-07-15T13:50:21.338Z,31.81
2018-07-15T13:52:49.023Z,31.88
2018-07-15T13:55:16.731Z,31.86
2018-07-15T13:57:44.847Z,31.83
2018-07-15T14:00:13.520Z,31.94
2018-07-15T14:02:41.222Z,32.07
2018-07-15T14:05:09.540Z,32.14
2018-07-15T14:07:38.645Z,32.15
2018-07-15T14:10:07.323Z,32.18
2018-07-15T14:12:35.317Z,32.20
2018-07-15T14:15:04.394Z,32.26
2018-07-15T14:20:07.439Z,32.29
2018-07-15T14:22:36.646Z,32.23
2018-07-15T14:25:05.736Z,32.27
2018-07-15T14:27:34.455Z,32.35
2018-07-15T14:30:04.260Z,32.36
2018-07-15T14:32:33.532Z,32.34
2018-07-15T14:35:02.368Z,32.40
2018-07-15T14:37:30.689Z,32.48
2018-07-15T14:39:58.447Z,32.53
2018-07-15T14:42:29.137Z,32.63
2018-07-15T14:44:58.581Z,32.68
2018-07-15T14:47:33.591Z,32.69
2018-07-15T14:50:02.402Z,32.68
2018-07-15T14:52:30.769Z,32.74
2018-07-15T14:54:58.456Z,32.81
2018-07-15T14:57:27.596Z,32.84
2018-07-15T14:59:55.288Z,32.81
2018-07-15T15:02:22.993Z,32.79
2018-07-15T15:04:51.934Z,32.80
2018-07-15T15:07:20.308Z,32.79
2018-07-15T15:09:48.771Z,32.73
2018-07-15T15:12:16.756Z,32.66
2018-07-15T15:14:47.695Z,32.63
2018-07-15T15:17:16.417Z,32.64
2018-07-15T15:19:44.427Z,32.74
2018-07-15T15:22:13.145Z,32.82
2018-07-15T15:24:41.802Z,32.81
2018-07-15T15:27:10.313Z,32.78
2018-07-15T15:29:39.974Z,32.70
2018-07-15T15:32:08.381Z,32.70
2018-07-15T15:34:38.450Z,32.73
2018-07-15T15:37:07.072Z,32.75
2018-07-15T15:39:35.672Z,32.81
2018-07-15T15:42:04.749Z,32.87
2018-07-15T15:44:32.462Z,32.93
2018-07-15T15:47:00.176Z,32.97
2018-07-15T15:49:28.192Z,32.92
2018-07-15T15:51:56.641Z,32.91
2018-07-15T15:54:24.395Z,32.89
2018-07-15T15:56:52.627Z,32.88
2018-07-15T15:59:21.249Z,32.80
2018-07-15T16:01:48.966Z,32.81
2018-07-15T16:04:17.642Z,32.88
2018-07-15T16:06:46.152Z,32.99
2018-07-15T16:09:16.845Z,33.04
2018-07-15T16:11:45.214Z,33.12
2018-07-15T16:14:13.933Z,33.11
2018-07-15T16:16:42.667Z,33.09
2018-07-15T16:19:15.150Z,33.06
2018-07-15T16:21:45.460Z,33.01
2018-07-15T16:24:17.675Z,33.03
2018-07-15T16:26:47.457Z,33.05
2018-07-15T16:29:15.153Z,33.02
2018-07-15T16:31:47.454Z,33.04
2018-07-15T16:34:15.228Z,33.10
2018-07-15T16:36:42.904Z,33.14
2018-07-15T16:39:11.046Z,33.09
2018-07-15T16:41:39.428Z,33.03
2018-07-15T16:44:07.208Z,33.01
2018-07-15T16:46:36.205Z,32.99
2018-07-15T16:49:03.910Z,32.99
2018-07-15T16:51:33.082Z,32.92
2018-07-15T16:54:01.644Z,32.88
2018-07-15T16:56:29.341Z,32.81
2018-07-15T16:58:58.268Z,32.76
2018-07-15T17:01:26.305Z,32.78
2018-07-15T17:03:55.515Z,32.80
